sensor_id;sensor_type;location;lat;lon;timestamp;pressure;altitude;pressure_sealevel;temperature;humidity
52469;BME280;38381;53.688;10.776;2022-10-16T00:04:31;100606.25;;;14.23;85.84
52469;BME280;38381;53.688;10.776;2022-10-16T00:09:31;100599.34;;;14.16;86.33
52469;BME280;38381;53.688;10.776;2022-10-16T00:14:32;100608.97;;;14.11;87.26
52469;BME280;38381;53.688;10.776;2022-10-16T00:19:32;100606.44;;;14.02;87.33
52469;BME280;38381;53.688;10.776;2022-10-16T00:24:33;100615.19;;;13.98;87.76
52469;BME280;38381;53.688;10.776;2022-10-16T00:29:33;100611.72;;;13.99;87.66
52469;BME280;38381;53.688;10.776;2022-10-16T00:34:33;100620.63;;;13.76;89.42
52469;BME280;38381;53.688;10.776;2022-10-16T00:39:34;100613.59;;;13.84;89.04
52469;BME280;38381;53.688;10.776;2022-10-16T00:44:42;100630.09;;;13.86;89.10
52469;BME280;38381;53.688;10.776;2022-10-16T00:49:43;100629.34;;;13.72;89.82
52469;BME280;38381;53.688;10.776;2022-10-16T00:54:44;100630.31;;;13.60;90.47
52469;BME280;38381;53.688;10.776;2022-10-16T00:59:46;100627.75;;;13.56;90.54
52469;BME280;38381;53.688;10.776;2022-10-16T01:04:50;100643.34;;;13.59;90.39
52469;BME280;38381;53.688;10.776;2022-10-16T01:15:10;100651.25;;;13.46;90.46
52469;BME280;38381;53.688;10.776;2022-10-16T01:25:25;100642.69;;;13.21;91.70
52469;BME280;38381;53.688;10.776;2022-10-16T01:30:32;100657.47;;;13.21;91.47
52469;BME280;38381;53.688;10.776;2022-10-16T01:35:37;100654.94;;;13.08;91.94
52469;BME280;38381;53.688;10.776;2022-10-16T01:40:43;100658.41;;;13.07;91.71
52469;BME280;38381;53.688;10.776;2022-10-16T01:45:45;100660.22;;;12.96;91.79
52469;BME280;38381;53.688;10.776;2022-10-16T01:51:01;100664.59;;;12.88;92.18
52469;BME280;38381;53.688;10.776;2022-10-16T01:56:05;100668.97;;;12.72;93.11
52469;BME280;38381;53.688;10.776;2022-10-16T02:01:09;100663.75;;;12.77;92.49
52469;BME280;38381;53.688;10.776;2022-10-16T02:06:11;100658.59;;;12.74;92.76
52469;BME280;38381;53.688;10.776;2022-10-16T02:11:12;100653.41;;;12.63;93.47
52469;BME280;38381;53.688;10.776;2022-10-16T02:16:14;100654.31;;;12.57;94.03
52469;BME280;38381;53.688;10.776;2022-10-16T02:21:28;100669.06;;;12.55;93.75
52469;BME280;38381;53.688;10.776;2022-10-16T02:31:43;100663.84;;;12.54;93.71
52469;BME280;38381;53.688;10.776;2022-10-16T02:36:46;100666.38;;;12.74;92.57
52469;BME280;38381;53.688;10.776;2022-10-16T02:41:48;100653.41;;;12.60;92.69
52469;BME280;38381;53.688;10.776;2022-10-16T02:46:49;100655.16;;;12.56;92.36
52469;BME280;38381;53.688;10.776;2022-10-16T02:51:49;100659.53;;;12.48;92.59
52469;BME280;38381;53.688;10.776;2022-10-16T02:56:49;100667.31;;;12.48;92.47
52469;BME280;38381;53.688;10.776;2022-10-16T03:01:50;100669.06;;;12.49;91.81
52469;BME280;38381;53.688;10.776;2022-10-16T03:06:51;100669.94;;;12.40;91.86
52469;BME280;38381;53.688;10.776;2022-10-16T03:11:51;100668.16;;;12.55;90.33
52469;BME280;38381;53.688;10.776;2022-10-16T03:16:52;100665.56;;;12.55;90.39
52469;BME280;38381;53.688;10.776;2022-10-16T03:21:53;100673.34;;;12.61;89.93
52469;BME280;38381;53.688;10.776;2022-10-16T03:26:53;100673.41;;;12.47;89.95
52469;BME280;38381;53.688;10.776;2022-10-16T03:31:53;100673.44;;;12.41;89.81
52469;BME280;38381;53.688;10.776;2022-10-16T03:36:54;100661.31;;;12.23;90.06
52469;BME280;38381;53.688;10.776;2022-10-16T03:41:54;100663.94;;;12.23;89.70
52469;BME280;38381;53.688;10.776;2022-10-16T03:46:55;100662.22;;;12.13;89.78
52469;BME280;38381;53.688;10.776;2022-10-16T03:51:55;100668.28;;;12.04;89.97
52469;BME280;38381;53.688;10.776;2022-10-16T03:56:56;100665.69;;;11.93;90.28
52469;BME280;38381;53.688;10.776;2022-10-16T04:01:56;100678.66;;;11.87;90.55
52469;BME280;38381;53.688;10.776;2022-10-16T04:06:57;100688.22;;;11.91;90.31
52469;BME280;38381;53.688;10.776;2022-10-16T04:11:57;100690.78;;;11.71;91.31
52469;BME280;38381;53.688;10.776;2022-10-16T04:16:57;100679.53;;;11.72;90.44
52469;BME280;38381;53.688;10.776;2022-10-16T04:21:58;100689.06;;;11.61;91.19
52469;BME280;38381;53.688;10.776;2022-10-16T04:26:58;100695.09;;;11.58;91.69
52469;BME280;38381;53.688;10.776;2022-10-16T04:31:59;100705.47;;;11.54;90.90
52469;BME280;38381;53.688;10.776;2022-10-16T04:37:00;100702.88;;;11.51;91.41
52469;BME280;38381;53.688;10.776;2022-10-16T04:42:00;100709.81;;;11.42;91.46
52469;BME280;38381;53.688;10.776;2022-10-16T04:47:01;100727.13;;;11.56;90.58
52469;BME280;38381;53.688;10.776;2022-10-16T04:52:01;100718.44;;;11.35;91.09
52469;BME280;38381;53.688;10.776;2022-10-16T04:57:02;100728.81;;;11.41;91.31
52469;BME280;38381;53.688;10.776;2022-10-16T05:02:02;100738.34;;;11.39;90.99
52469;BME280;38381;53.688;10.776;2022-10-16T05:07:03;100753.91;;;11.39;90.76
52469;BME280;38381;53.688;10.776;2022-10-16T05:12:04;100749.63;;;11.44;89.81
52469;BME280;38381;53.688;10.776;2022-10-16T05:17:04;100745.28;;;11.45;90.35
52469;BME280;38381;53.688;10.776;2022-10-16T05:22:05;100749.59;;;11.41;90.46
52469;BME280;38381;53.688;10.776;2022-10-16T05:27:05;100756.50;;;11.30;90.92
52469;BME280;38381;53.688;10.776;2022-10-16T05:32:06;100759.94;;;11.26;90.73
52469;BME280;38381;53.688;10.776;2022-10-16T05:37:07;100770.31;;;11.20;91.05
52469;BME280;38381;53.688;10.776;2022-10-16T05:42:07;100782.44;;;11.22;91.13
52469;BME280;38381;53.688;10.776;2022-10-16T05:47:08;100781.59;;;11.26;90.44
52469;BME280;38381;53.688;10.776;2022-10-16T05:52:08;100791.09;;;11.24;91.11
52469;BME280;38381;53.688;10.776;2022-10-16T05:57:09;100789.31;;;11.17;91.11
52469;BME280;38381;53.688;10.776;2022-10-16T06:02:13;100789.34;;;11.19;91.44
52469;BME280;38381;53.688;10.776;2022-10-16T06:07:14;100791.09;;;11.27;90.87
52469;BME280;38381;53.688;10.776;2022-10-16T06:12:14;100797.19;;;11.34;90.37
52469;BME280;38381;53.688;10.776;2022-10-16T06:17:15;100798.81;;;11.12;90.96
52469;BME280;38381;53.688;10.776;2022-10-16T06:22:15;100806.59;;;11.07;91.26
52469;BME280;38381;53.688;10.776;2022-10-16T06:27:16;100817.84;;;11.08;91.85
52469;BME280;38381;53.688;10.776;2022-10-16T06:32:16;100807.47;;;11.17;91.29
52469;BME280;38381;53.688;10.776;2022-10-16T06:37:17;100813.53;;;11.12;92.14
52469;BME280;38381;53.688;10.776;2022-10-16T06:42:18;100820.44;;;11.13;92.58
52469;BME280;38381;53.688;10.776;2022-10-16T06:47:18;100830.91;;;11.22;92.23
52469;BME280;38381;53.688;10.776;2022-10-16T06:52:19;100834.38;;;11.24;92.32
52469;BME280;38381;53.688;10.776;2022-10-16T06:57:20;100831.72;;;11.19;92.84
52469;BME280;38381;53.688;10.776;2022-10-16T07:02:20;100831.75;;;11.25;92.43
52469;BME280;38381;53.688;10.776;2022-10-16T07:07:21;100844.84;;;11.42;92.18
52469;BME280;38381;53.688;10.776;2022-10-16T07:12:24;100844.84;;;11.42;92.47
52469;BME280;38381;53.688;10.776;2022-10-16T07:17:25;100847.47;;;11.53;92.61
52469;BME280;38381;53.688;10.776;2022-10-16T07:22:28;100865.72;;;11.67;92.50
52469;BME280;38381;53.688;10.776;2022-10-16T07:27:28;100871.00;;;11.90;92.09
52469;BME280;38381;53.688;10.776;2022-10-16T07:32:29;100864.09;;;11.97;91.81
52469;BME280;38381;53.688;10.776;2022-10-16T07:37:29;100854.59;;;12.23;90.73
52469;BME280;38381;53.688;10.776;2022-10-16T07:42:30;100864.13;;;12.20;91.54
52469;BME280;38381;53.688;10.776;2022-10-16T07:47:30;100865.91;;;12.53;91.10
52469;BME280;38381;53.688;10.776;2022-10-16T07:52:30;100885.81;;;12.85;90.06
52469;BME280;38381;53.688;10.776;2022-10-16T07:57:31;100888.41;;;13.06;89.05
52469;BME280;38381;53.688;10.776;2022-10-16T08:02:31;100890.97;;;13.22;88.14
52469;BME280;38381;53.688;10.776;2022-10-16T08:07:32;100903.97;;;13.45;86.72
52469;BME280;38381;53.688;10.776;2022-10-16T08:12:32;100898.59;;;13.83;86.18
52469;BME280;38381;53.688;10.776;2022-10-16T08:17:33;100896.72;;;14.12;84.54
52469;BME280;38381;53.688;10.776;2022-10-16T08:22:33;100902.66;;;14.32;83.62
52469;BME280;38381;53.688;10.776;2022-10-16T08:27:34;100909.47;;;14.52;83.04
52469;BME280;38381;53.688;10.776;2022-10-16T08:32:34;100918.91;;;14.76;81.83
52469;BME280;38381;53.688;10.776;2022-10-16T08:37:35;100921.56;;;14.73;81.41
52469;BME280;38381;53.688;10.776;2022-10-16T08:48:52;100908.44;;;14.79;81.15
52469;BME280;38381;53.688;10.776;2022-10-16T08:53:59;100913.63;;;14.82;80.82
52469;BME280;38381;53.688;10.776;2022-10-16T08:59:03;100929.94;;;15.08;79.95
52469;BME280;38381;53.688;10.776;2022-10-16T09:25:31;100938.94;;;15.65;78.41
52469;BME280;38381;53.688;10.776;2022-10-16T09:30:32;100936.66;;;16.10;77.63
52469;BME280;38381;53.688;10.776;2022-10-16T09:35:41;100942.31;;;16.40;76.01
52469;BME280;38381;53.688;10.776;2022-10-16T09:40:42;100937.72;;;16.57;74.99
52469;BME280;38381;53.688;10.776;2022-10-16T09:45:43;100948.38;;;16.45;73.91
52469;BME280;38381;53.688;10.776;2022-10-16T09:51:24;100958.47;;;16.69;73.93
52469;BME280;38381;53.688;10.776;2022-10-16T09:56:32;100961.78;;;16.84;73.43
52469;BME280;38381;53.688;10.776;2022-10-16T10:01:41;100959.81;;;16.95;73.15
52469;BME280;38381;53.688;10.776;2022-10-16T10:06:45;100952.59;;;17.09;72.07
52469;BME280;38381;53.688;10.776;2022-10-16T10:11:51;100961.88;;;17.29;71.76
52469;BME280;38381;53.688;10.776;2022-10-16T10:17:01;100967.06;;;17.30;71.06
52469;BME280;38381;53.688;10.776;2022-10-16T10:22:15;100968.06;;;17.25;70.31
52469;BME280;38381;53.688;10.776;2022-10-16T10:27:18;100977.63;;;17.26;69.76
52469;BME280;38381;53.688;10.776;2022-10-16T10:38:20;100981.69;;;17.44;68.34
52469;BME280;38381;53.688;10.776;2022-10-16T10:43:06;100987.41;;;17.64;68.79
52469;BME280;38381;53.688;10.776;2022-10-16T10:48:17;100997.25;;;17.98;66.36
52469;BME280;38381;53.688;10.776;2022-10-16T10:59:02;101017.31;;;18.02;64.71
52469;BME280;38381;53.688;10.776;2022-10-16T11:09:39;101006.75;;;18.05;64.29
52469;BME280;38381;53.688;10.776;2022-10-16T11:14:43;100996.81;;;18.21;63.34
52469;BME280;38381;53.688;10.776;2022-10-16T11:25:00;101004.84;;;18.54;62.73
52469;BME280;38381;53.688;10.776;2022-10-16T11:30:06;101024.69;;;18.66;61.03
52469;BME280;38381;53.688;10.776;2022-10-16T11:35:19;101019.53;;;18.61;60.16
52469;BME280;38381;53.688;10.776;2022-10-16T11:40:37;101013.25;;;18.68;60.45
52469;BME280;38381;53.688;10.776;2022-10-16T11:45:47;101021.66;;;18.84;59.13
52469;BME280;38381;53.688;10.776;2022-10-16T11:50:57;101024.22;;;18.48;58.22
52469;BME280;38381;53.688;10.776;2022-10-16T11:56:00;101027.72;;;18.47;59.52
52469;BME280;38381;53.688;10.776;2022-10-16T12:01:19;101025.06;;;18.49;58.94
52469;BME280;38381;53.688;10.776;2022-10-16T12:11:37;101032.28;;;18.39;58.36
52469;BME280;38381;53.688;10.776;2022-10-16T12:16:39;101053.16;;;18.45;58.24
52469;BME280;38381;53.688;10.776;2022-10-16T12:21:51;101055.84;;;18.44;58.28
52469;BME280;38381;53.688;10.776;2022-10-16T12:26:52;101058.25;;;18.53;58.19
52469;BME280;38381;53.688;10.776;2022-10-16T12:31:53;101064.47;;;18.49;58.62
52469;BME280;38381;53.688;10.776;2022-10-16T12:36:55;101082.97;;;18.43;58.28
52469;BME280;38381;53.688;10.776;2022-10-16T12:42:01;101092.28;;;18.17;58.16
52469;BME280;38381;53.688;10.776;2022-10-16T12:47:02;101103.16;;;17.96;58.49
52469;BME280;38381;53.688;10.776;2022-10-16T12:52:03;101098.84;;;17.95;58.73
52469;BME280;38381;53.688;10.776;2022-10-16T13:12:49;101134.03;;;18.29;56.97
52469;BME280;38381;53.688;10.776;2022-10-16T13:28:08;101153.97;;;17.92;58.77
52469;BME280;38381;53.688;10.776;2022-10-16T13:33:16;101164.59;;;17.85;58.84
52469;BME280;38381;53.688;10.776;2022-10-16T13:43:24;101197.06;;;17.77;57.21
52469;BME280;38381;53.688;10.776;2022-10-16T13:48:26;101190.94;;;17.76;57.21
52469;BME280;38381;53.688;10.776;2022-10-16T13:53:26;101197.03;;;17.78;57.41
52469;BME280;38381;53.688;10.776;2022-10-16T13:58:27;101194.63;;;17.66;58.33
52469;BME280;38381;53.688;10.776;2022-10-16T14:03:28;101212.81;;;17.77;58.60
52469;BME280;38381;53.688;10.776;2022-10-16T14:08:30;101212.63;;;17.91;56.89
52469;BME280;38381;53.688;10.776;2022-10-16T14:13:35;101227.50;;;17.88;56.05
52469;BME280;38381;53.688;10.776;2022-10-16T14:18:38;101227.44;;;17.93;55.81
52469;BME280;38381;53.688;10.776;2022-10-16T14:23:40;101224.81;;;17.92;57.39
52469;BME280;38381;53.688;10.776;2022-10-16T14:28:42;101241.41;;;17.94;57.57
52469;BME280;38381;53.688;10.776;2022-10-16T14:33:43;101238.75;;;17.97;57.03
52469;BME280;38381;53.688;10.776;2022-10-16T14:38:50;101247.38;;;18.03;56.80
52469;BME280;38381;53.688;10.776;2022-10-16T14:43:56;101246.81;;;17.84;56.89
52469;BME280;38381;53.688;10.776;2022-10-16T14:49:05;101265.25;;;17.78;56.92
52469;BME280;38381;53.688;10.776;2022-10-16T14:54:15;101269.59;;;17.79;56.74
52469;BME280;38381;53.688;10.776;2022-10-16T14:59:25;101272.13;;;17.87;57.44
52469;BME280;38381;53.688;10.776;2022-10-16T15:04:27;101268.75;;;17.76;57.18
52469;BME280;38381;53.688;10.776;2022-10-16T15:09:28;101287.28;;;17.68;57.22
52469;BME280;38381;53.688;10.776;2022-10-16T15:14:28;101280.41;;;17.58;57.43
52469;BME280;38381;53.688;10.776;2022-10-16T15:19:29;101282.31;;;17.48;57.67
52469;BME280;38381;53.688;10.776;2022-10-16T15:24:29;101294.66;;;17.40;58.03
52469;BME280;38381;53.688;10.776;2022-10-16T15:29:30;101304.31;;;17.36;58.06
52469;BME280;38381;53.688;10.776;2022-10-16T15:34:31;101314.09;;;17.22;58.53
52469;BME280;38381;53.688;10.776;2022-10-16T15:39:31;101317.75;;;17.08;59.25
52469;BME280;38381;53.688;10.776;2022-10-16T15:44:31;101324.88;;;16.97;59.75
52469;BME280;38381;53.688;10.776;2022-10-16T15:49:32;101321.38;;;16.97;59.65
52469;BME280;38381;53.688;10.776;2022-10-16T15:54:32;101325.03;;;16.82;60.33
52469;BME280;38381;53.688;10.776;2022-10-16T15:59:33;101339.91;;;16.75;60.50
52469;BME280;38381;53.688;10.776;2022-10-16T16:04:33;101347.00;;;16.61;61.18
52469;BME280;38381;53.688;10.776;2022-10-16T16:09:34;101353.22;;;16.54;61.81
52469;BME280;38381;53.688;10.776;2022-10-16T16:14:34;101360.25;;;16.42;62.29
52469;BME280;38381;53.688;10.776;2022-10-16T16:19:35;101372.53;;;16.36;62.26
52469;BME280;38381;53.688;10.776;2022-10-16T16:24:35;101381.38;;;16.22;62.74
52469;BME280;38381;53.688;10.776;2022-10-16T16:29:35;101383.19;;;16.11;62.72
52469;BME280;38381;53.688;10.776;2022-10-16T16:34:36;101378.88;;;16.01;63.15
52469;BME280;38381;53.688;10.776;2022-10-16T16:39:36;101399.88;;;15.87;63.93
52469;BME280;38381;53.688;10.776;2022-10-16T16:44:37;101404.31;;;15.69;64.78
52469;BME280;38381;53.688;10.776;2022-10-16T16:49:37;101419.19;;;15.57;65.71
52469;BME280;38381;53.688;10.776;2022-10-16T16:54:38;101430.53;;;15.43;66.33
52469;BME280;38381;53.688;10.776;2022-10-16T16:59:38;101439.31;;;15.27;67.02
52469;BME280;38381;53.688;10.776;2022-10-16T17:04:39;101451.53;;;15.09;67.99
52469;BME280;38381;53.688;10.776;2022-10-16T17:09:39;101460.25;;;14.93;68.25
52469;BME280;38381;53.688;10.776;2022-10-16T17:14:40;101479.38;;;14.80;68.61
52469;BME280;38381;53.688;10.776;2022-10-16T17:19:40;101482.00;;;14.63;69.01
52469;BME280;38381;53.688;10.776;2022-10-16T17:24:41;101485.41;;;14.49;69.68
52469;BME280;38381;53.688;10.776;2022-10-16T17:29:42;101502.78;;;14.35;70.15
52469;BME280;38381;53.688;10.776;2022-10-16T17:34:43;101504.47;;;14.22;70.39
52469;BME280;38381;53.688;10.776;2022-10-16T17:39:43;101509.63;;;14.08;70.73
52469;BME280;38381;53.688;10.776;2022-10-16T17:44:44;101513.06;;;13.95;71.20
52469;BME280;38381;53.688;10.776;2022-10-16T17:49:44;101532.16;;;13.86;71.16
52469;BME280;38381;53.688;10.776;2022-10-16T17:54:45;101533.78;;;13.64;71.91
52469;BME280;38381;53.688;10.776;2022-10-16T17:59:46;101551.06;;;13.52;72.14
52469;BME280;38381;53.688;10.776;2022-10-16T18:04:49;101546.66;;;13.41;72.37
52469;BME280;38381;53.688;10.776;2022-10-16T18:09:51;101561.25;;;13.28;72.43
52469;BME280;38381;53.688;10.776;2022-10-16T18:14:51;101569.88;;;13.17;73.22
52469;BME280;38381;53.688;10.776;2022-10-16T18:19:57;101573.19;;;13.00;73.92
52469;BME280;38381;53.688;10.776;2022-10-16T18:24:58;101575.66;;;12.86;74.25
52469;BME280;38381;53.688;10.776;2022-10-16T18:29:58;101579.84;;;12.72;75.00
52469;BME280;38381;53.688;10.776;2022-10-16T18:34:59;101590.09;;;12.58;75.13
52469;BME280;38381;53.688;10.776;2022-10-16T18:40:00;101595.94;;;12.39;75.68
52469;BME280;38381;53.688;10.776;2022-10-16T18:45:00;101606.25;;;12.31;75.31
52469;BME280;38381;53.688;10.776;2022-10-16T18:50:01;101618.38;;;12.31;74.36
52469;BME280;38381;53.688;10.776;2022-10-16T18:55:02;101621.69;;;12.19;74.91
52469;BME280;38381;53.688;10.776;2022-10-16T19:00:03;101619.03;;;12.16;75.10
52469;BME280;38381;53.688;10.776;2022-10-16T19:05:04;101638.84;;;12.06;75.94
52469;BME280;38381;53.688;10.776;2022-10-16T19:10:05;101634.44;;;12.00;76.73
52469;BME280;38381;53.688;10.776;2022-10-16T19:15:06;101642.97;;;11.92;76.82
52469;BME280;38381;53.688;10.776;2022-10-16T19:20:07;101643.56;;;11.75;77.99
52469;BME280;38381;53.688;10.776;2022-10-16T19:25:07;101633.06;;;11.69;78.14
52469;BME280;38381;53.688;10.776;2022-10-16T19:30:08;101639.13;;;11.70;77.83
52469;BME280;38381;53.688;10.776;2022-10-16T19:35:09;101639.03;;;11.63;78.51
52469;BME280;38381;53.688;10.776;2022-10-16T19:40:10;101646.72;;;11.57;78.39
52469;BME280;38381;53.688;10.776;2022-10-16T19:45:10;101642.31;;;11.53;78.37
52469;BME280;38381;53.688;10.776;2022-10-16T19:50:11;101662.06;;;11.43;79.13
52469;BME280;38381;53.688;10.776;2022-10-16T19:55:12;101667.00;;;11.30;79.45
52469;BME280;38381;53.688;10.776;2022-10-16T20:00:13;101666.03;;;11.23;79.52
52469;BME280;38381;53.688;10.776;2022-10-16T20:05:13;101677.25;;;11.20;79.02
52469;BME280;38381;53.688;10.776;2022-10-16T20:10:14;101681.38;;;11.11;79.68
52469;BME280;38381;53.688;10.776;2022-10-16T20:15:14;101676.03;;;11.03;79.72
52469;BME280;38381;53.688;10.776;2022-10-16T20:20:15;101693.28;;;10.99;80.36
52469;BME280;38381;53.688;10.776;2022-10-16T20:25:16;101700.91;;;10.92;80.29
52469;BME280;38381;53.688;10.776;2022-10-16T20:30:17;101701.66;;;10.86;81.03
52469;BME280;38381;53.688;10.776;2022-10-16T20:35:17;101702.44;;;10.82;80.70
52469;BME280;38381;53.688;10.776;2022-10-16T20:40:17;101704.09;;;10.77;81.02
52469;BME280;38381;53.688;10.776;2022-10-16T20:45:18;101718.75;;;10.76;81.15
52469;BME280;38381;53.688;10.776;2022-10-16T20:50:19;101709.09;;;10.69;80.62
52469;BME280;38381;53.688;10.776;2022-10-16T20:55:19;101708.28;;;10.72;81.38
52469;BME280;38381;53.688;10.776;2022-10-16T21:00:20;101735.91;;;10.70;82.04
52469;BME280;38381;53.688;10.776;2022-10-16T21:05:21;101736.69;;;10.65;82.57
52469;BME280;38381;53.688;10.776;2022-10-16T21:10:22;101742.75;;;10.66;82.43
52469;BME280;38381;53.688;10.776;2022-10-16T21:15:22;101716.72;;;10.61;82.18
52469;BME280;38381;53.688;10.776;2022-10-16T21:20:23;101729.66;;;10.60;82.47
52469;BME280;38381;53.688;10.776;2022-10-16T21:25:23;101736.50;;;10.56;82.80
52469;BME280;38381;53.688;10.776;2022-10-16T21:30:24;101733.91;;;10.56;82.51
52469;BME280;38381;53.688;10.776;2022-10-16T21:35:24;101733.88;;;10.55;82.20
52469;BME280;38381;53.688;10.776;2022-10-16T21:40:25;101763.28;;;10.55;82.51
52469;BME280;38381;53.688;10.776;2022-10-16T21:45:25;101786.47;;;10.49;82.85
52469;BME280;38381;53.688;10.776;2022-10-16T21:50:26;101777.69;;;10.42;82.37
52469;BME280;38381;53.688;10.776;2022-10-16T21:55:26;101771.50;;;10.36;82.24
52469;BME280;38381;53.688;10.776;2022-10-16T22:00:27;101777.50;;;10.35;83.57
52469;BME280;38381;53.688;10.776;2022-10-16T22:05:27;101773.13;;;10.32;83.67
52469;BME280;38381;53.688;10.776;2022-10-16T22:10:28;101780.84;;;10.31;83.11
52469;BME280;38381;53.688;10.776;2022-10-16T22:15:28;101767.72;;;10.24;82.75
52469;BME280;38381;53.688;10.776;2022-10-16T22:20:28;101773.75;;;10.23;83.07
52469;BME280;38381;53.688;10.776;2022-10-16T22:25:29;101777.16;;;10.22;83.32
52469;BME280;38381;53.688;10.776;2022-10-16T22:30:29;101771.94;;;10.19;83.88
52469;BME280;38381;53.688;10.776;2022-10-16T22:35:30;101770.16;;;10.18;84.39
52469;BME280;38381;53.688;10.776;2022-10-16T22:40:36;101768.41;;;10.17;84.27
52469;BME280;38381;53.688;10.776;2022-10-16T22:45:37;101770.16;;;10.18;84.19
52469;BME280;38381;53.688;10.776;2022-10-16T22:50:37;101765.84;;;10.19;84.66
52469;BME280;38381;53.688;10.776;2022-10-16T22:55:38;101771.88;;;10.18;85.00
52469;BME280;38381;53.688;10.776;2022-10-16T23:00:40;101751.03;;;10.13;84.28
52469;BME280;38381;53.688;10.776;2022-10-16T23:05:41;101765.00;;;10.20;84.93
52469;BME280;38381;53.688;10.776;2022-10-16T23:10:44;101759.78;;;10.18;85.10
52469;BME280;38381;53.688;10.776;2022-10-16T23:15:45;101748.59;;;10.19;85.58
52469;BME280;38381;53.688;10.776;2022-10-16T23:20:45;101753.78;;;10.21;85.76
52469;BME280;38381;53.688;10.776;2022-10-16T23:25:46;101764.16;;;10.21;85.51
52469;BME280;38381;53.688;10.776;2022-10-16T23:30:46;101766.75;;;10.19;85.34
52469;BME280;38381;53.688;10.776;2022-10-16T23:35:47;101751.25;;;10.22;86.71
52469;BME280;38381;53.688;10.776;2022-10-16T23:40:47;101766.81;;;10.22;86.71
52469;BME280;38381;53.688;10.776;2022-10-16T23:45:48;101753.94;;;10.27;86.98
52469;BME280;38381;53.688;10.776;2022-10-16T23:50:48;101747.88;;;10.26;85.88
52469;BME280;38381;53.688;10.776;2022-10-16T23:55:49;101747.94;;;10.28;85.80
